Time;durP1;ratioP1;P1;durP2;ratioP2;P2;SDS_P1;SDS_P2;PMS_P1;PMS_P2;Temp;Humidity;BMP_temperature;BMP_pressure;BME280_temperature;BME280_humidity;BME280_pressure;Samples;Min_cycle;Max_cycle;Signal;HPM_P1;HPM_P2
2022/04/06 00:00:19;;;;;;;33.53;16.42;;;8.90;99.90;;;;;;4980518;28;89810;-37
2022/04/06 00:02:46;;;;;;;35.67;18.17;;;8.80;99.90;;;;;;4979299;28;89731;-33
2022/04/06 00:05:11;;;;;;;27.88;14.35;;;8.90;99.90;;;;;;4980229;28;88948;-33
2022/04/06 00:07:38;;;;;;;28.17;16.98;;;8.90;99.90;;;;;;4980119;28;90426;-33
2022/04/06 00:10:07;;;;;;;27.77;15.43;;;8.90;99.90;;;;;;4980141;28;93134;-33
2022/04/06 00:12:34;;;;;;;38.35;18.55;;;8.90;99.90;;;;;;4980628;28;89612;-35
2022/04/06 00:15:00;;;;;;;20.65;16.73;;;8.90;99.90;;;;;;4962147;28;88093;-32
2022/04/06 00:17:26;;;;;;;21.55;17.05;;;8.90;99.90;;;;;;4980742;28;90616;-34
2022/04/06 00:19:51;;;;;;;28.65;18.38;;;9.00;99.90;;;;;;4979126;28;90610;-34
2022/04/06 00:22:17;;;;;;;25.80;18.30;;;9.00;99.90;;;;;;4980197;28;90596;-37
2022/04/06 00:24:42;;;;;;;28.60;18.15;;;9.00;99.90;;;;;;5011697;22;89333;-34
2022/04/06 00:27:08;;;;;;;27.05;19.77;;;8.90;99.90;;;;;;4979929;28;90255;-37
2022/04/06 00:29:33;;;;;;;36.15;23.13;;;9.00;99.90;;;;;;4980509;28;89616;-32
2022/04/06 00:31:59;;;;;;;35.55;21.85;;;8.90;99.90;;;;;;4979703;28;89439;-35
2022/04/06 00:35:28;;;;;;;33.30;21.92;;;8.90;99.90;;;;;;4980194;28;88229;-34
2022/04/06 00:37:10;;;;;;;27.50;20.25;;;8.90;99.90;;;;;;4979758;28;90840;-32
2022/04/06 00:39:36;;;;;;;32.53;22.38;;;8.90;99.90;;;;;;4979871;28;90231;-32
2022/04/06 00:42:01;;;;;;;38.20;23.00;;;8.90;99.90;;;;;;4980561;28;89577;-32
2022/04/06 00:44:28;;;;;;;38.10;23.88;;;8.90;99.90;;;;;;4978735;28;90221;-34
2022/04/06 00:46:54;;;;;;;33.35;23.00;;;8.90;99.90;;;;;;4979407;28;88824;-34
2022/04/06 00:49:19;;;;;;;25.30;20.65;;;8.90;99.90;;;;;;4979406;28;89340;-33
2022/04/06 00:51:48;;;;;;;36.38;19.58;;;8.90;99.90;;;;;;4979493;28;89794;-36
2022/04/06 00:54:15;;;;;;;37.05;22.00;;;8.90;99.90;;;;;;4980218;28;90168;-32
2022/04/06 00:56:42;;;;;;;38.65;22.13;;;8.90;99.90;;;;;;4979212;28;90353;-31
2022/04/06 00:59:08;;;;;;;39.67;24.15;;;8.90;99.90;;;;;;4979167;28;89831;-34
2022/04/06 01:01:34;;;;;;;37.92;23.42;;;8.80;99.90;;;;;;4979539;28;89450;-33
2022/04/06 01:04:00;;;;;;;31.85;25.05;;;8.80;99.90;;;;;;4979950;28;88360;-32
2022/04/06 01:06:26;;;;;;;34.67;22.40;;;8.90;99.90;;;;;;4979292;28;90180;-34
2022/04/06 01:08:52;;;;;;;38.20;22.83;;;8.90;99.90;;;;;;4978516;28;90500;-35
2022/04/06 01:11:19;;;;;;;35.78;21.20;;;8.90;99.90;;;;;;4979814;28;92223;-34
2022/04/06 01:13:45;;;;;;;32.67;20.73;;;8.90;99.90;;;;;;4978809;28;88875;-34
2022/04/06 01:16:11;;;;;;;31.85;20.23;;;8.90;99.90;;;;;;4979025;28;90380;-33
2022/04/06 01:18:37;;;;;;;39.83;21.42;;;8.90;99.90;;;;;;4979250;28;89985;-36
2022/04/06 01:21:03;;;;;;;31.50;19.13;;;8.90;99.90;;;;;;4979051;28;89425;-36
2022/04/06 01:23:30;;;;;;;27.92;19.60;;;8.90;99.90;;;;;;4978773;28;87547;-32
2022/04/06 01:25:56;;;;;;;33.88;20.25;;;8.90;99.90;;;;;;4978386;28;90182;-34
2022/04/06 01:28:21;;;;;;;25.75;18.73;;;8.90;99.90;;;;;;4979576;28;89837;-37
2022/04/06 01:30:47;;;;;;;28.85;17.92;;;8.90;99.90;;;;;;4978897;28;90675;-35
2022/04/06 01:33:13;;;;;;;34.83;19.52;;;8.90;99.90;;;;;;4978537;28;89486;-34
2022/04/06 01:35:41;;;;;;;27.63;16.52;;;8.90;99.90;;;;;;4978144;28;90119;-34
2022/04/06 01:38:06;;;;;;;28.75;17.63;;;8.90;99.90;;;;;;4960848;28;88643;-36
2022/04/06 01:40:33;;;;;;;29.38;17.70;;;8.90;99.90;;;;;;4978949;28;89824;-36
2022/04/06 01:42:59;;;;;;;29.38;17.30;;;8.90;99.90;;;;;;4978858;28;88275;-34
2022/04/06 01:45:25;;;;;;;24.33;18.55;;;8.90;99.90;;;;;;4978170;28;90568;-32
2022/04/06 01:47:51;;;;;;;20.80;15.88;;;9.00;99.90;;;;;;4978419;28;90077;-34
2022/04/06 01:53:02;;;;;;;22.95;15.25;;;9.00;99.90;;;;;;4979203;28;89287;-34
2022/04/06 01:55:28;;;;;;;24.73;15.25;;;9.00;99.90;;;;;;4978820;28;90402;-34
2022/04/06 01:57:53;;;;;;;23.50;13.27;;;9.00;99.90;;;;;;4977545;28;91770;-33
2022/04/06 02:00:19;;;;;;;30.92;14.50;;;9.00;99.90;;;;;;4978615;28;90498;-34
2022/04/06 02:02:49;;;;;;;23.40;16.00;;;9.10;99.90;;;;;;4978973;28;88204;-34
2022/04/06 02:05:16;;;;;;;36.20;16.77;;;9.10;99.90;;;;;;4979431;28;88910;-34
2022/04/06 02:07:46;;;;;;;33.17;15.18;;;9.00;99.90;;;;;;4960510;28;89697;-33
2022/04/06 02:10:13;;;;;;;21.55;14.40;;;9.00;99.90;;;;;;4978345;28;90940;-33
2022/04/06 02:12:39;;;;;;;27.40;15.23;;;9.00;99.90;;;;;;4977844;28;89405;-36
2022/04/06 02:15:06;;;;;;;22.90;15.00;;;9.00;99.90;;;;;;4979289;28;90187;-32
2022/04/06 02:17:32;;;;;;;25.63;15.13;;;9.10;99.90;;;;;;4978823;28;89671;-33
2022/04/06 02:19:57;;;;;;;24.10;13.68;;;9.10;99.90;;;;;;4978320;28;89580;-31
2022/04/06 02:22:23;;;;;;;18.60;13.10;;;9.10;99.90;;;;;;4978482;28;89800;-34
2022/04/06 02:24:49;;;;;;;30.33;14.15;;;9.10;99.90;;;;;;4959223;28;90334;-31
2022/04/06 02:27:14;;;;;;;23.92;12.05;;;9.10;99.90;;;;;;4981684;28;90151;-33
2022/04/06 02:29:40;;;;;;;21.02;12.48;;;9.00;99.90;;;;;;4981568;28;90138;-32
2022/04/06 02:32:07;;;;;;;19.27;12.55;;;9.00;99.90;;;;;;4982152;28;89061;-35
2022/04/06 02:34:33;;;;;;;16.73;11.85;;;9.10;99.90;;;;;;4981733;28;90091;-36
2022/04/06 02:36:59;;;;;;;20.65;11.48;;;9.00;99.90;;;;;;4980946;28;89754;-35
2022/04/06 02:39:25;;;;;;;16.88;9.77;;;9.00;99.90;;;;;;4981713;28;90015;-36
2022/04/06 02:41:51;;;;;;;20.83;11.57;;;9.00;99.90;;;;;;4982670;28;89237;-33
2022/04/06 02:44:17;;;;;;;19.50;10.20;;;9.00;99.90;;;;;;4963536;28;90326;-34
2022/04/06 02:46:44;;;;;;;16.02;9.85;;;9.00;99.90;;;;;;4980509;28;90650;-34
2022/04/06 02:49:10;;;;;;;19.55;10.75;;;9.10;99.90;;;;;;4982273;28;90568;-33
2022/04/06 02:51:35;;;;;;;18.38;10.68;;;9.10;99.90;;;;;;4981328;28;89985;-33
2022/04/06 02:54:01;;;;;;;27.80;11.95;;;9.10;99.90;;;;;;4982274;28;89167;-32
2022/04/06 02:56:28;;;;;;;22.77;10.23;;;9.10;99.90;;;;;;4980818;28;89715;-35
2022/04/06 02:58:53;;;;;;;12.82;9.50;;;9.10;99.90;;;;;;4981125;28;88216;-34
2022/04/06 03:01:20;;;;;;;18.15;9.65;;;9.10;99.90;;;;;;4982460;28;89553;-33
2022/04/06 03:03:46;;;;;;;15.73;8.95;;;9.10;99.90;;;;;;4981737;28;89117;-33
2022/04/06 03:06:11;;;;;;;18.52;9.20;;;9.10;99.90;;;;;;4982169;28;89419;-36
2022/04/06 03:08:37;;;;;;;25.90;10.88;;;9.10;99.90;;;;;;4981372;28;89576;-36
2022/04/06 03:11:03;;;;;;;22.83;10.00;;;9.00;99.90;;;;;;4980798;28;89166;-35
2022/04/06 03:13:29;;;;;;;18.95;10.38;;;9.10;99.90;;;;;;4981108;28;90284;-35
2022/04/06 03:15:55;;;;;;;20.33;11.93;;;9.00;99.90;;;;;;4980319;28;89973;-36
2022/04/06 03:18:21;;;;;;;22.70;10.23;;;9.00;99.90;;;;;;4981699;28;90109;-32
2022/04/06 03:20:47;;;;;;;22.00;11.20;;;9.00;99.90;;;;;;4980735;28;87791;-34
2022/04/06 03:23:14;;;;;;;21.10;10.02;;;8.90;99.90;;;;;;4980529;28;90474;-37
2022/04/06 03:25:39;;;;;;;21.48;10.50;;;8.90;99.90;;;;;;4980750;28;91180;-33
2022/04/06 03:28:05;;;;;;;21.63;11.13;;;8.90;99.90;;;;;;4981272;28;89490;-32
2022/04/06 03:30:30;;;;;;;23.92;12.20;;;9.00;99.90;;;;;;4981817;28;87692;-35
2022/04/06 03:32:56;;;;;;;28.00;12.50;;;9.00;99.90;;;;;;4980699;28;90374;-33
2022/04/06 03:35:22;;;;;;;21.73;11.88;;;9.00;99.90;;;;;;4980627;28;90852;-34
2022/04/06 03:37:49;;;;;;;25.23;12.15;;;9.00;99.90;;;;;;4980508;28;90318;-32
2022/04/06 03:40:15;;;;;;;20.00;12.07;;;9.00;99.90;;;;;;4980687;28;89246;-35
2022/04/06 03:42:40;;;;;;;19.13;13.25;;;9.00;99.90;;;;;;4981053;28;90910;-33
2022/04/06 03:45:07;;;;;;;24.40;12.45;;;9.00;99.90;;;;;;4980060;28;89930;-35
2022/04/06 03:47:34;;;;;;;30.30;13.63;;;9.00;99.90;;;;;;4980453;28;90287;-36
2022/04/06 03:50:00;;;;;;;32.42;12.88;;;9.10;99.90;;;;;;4981161;28;89434;-36
2022/04/06 03:52:29;;;;;;;25.98;15.77;;;9.00;99.90;;;;;;4981159;28;90668;-33
2022/04/06 03:54:55;;;;;;;19.83;14.13;;;9.10;99.90;;;;;;4980500;28;89946;-35
2022/04/06 03:57:21;;;;;;;28.92;14.55;;;9.10;99.90;;;;;;4979959;28;89514;-35
2022/04/06 03:59:46;;;;;;;25.13;14.93;;;9.10;99.90;;;;;;4979965;28;90301;-36
2022/04/06 04:02:12;;;;;;;34.67;16.27;;;9.10;99.90;;;;;;4980142;28;90304;-32
2022/04/06 04:04:37;;;;;;;30.85;15.88;;;9.10;99.90;;;;;;4980769;28;89899;-33
2022/04/06 04:07:06;;;;;;;22.63;12.90;;;9.10;99.90;;;;;;4979870;28;89990;-33
2022/04/06 04:09:33;;;;;;;25.20;14.95;;;9.10;99.90;;;;;;4980270;28;90046;-32
2022/04/06 04:11:59;;;;;;;33.72;17.38;;;9.10;99.90;;;;;;4980319;28;90243;-35
2022/04/06 04:14:25;;;;;;;26.13;17.08;;;9.20;99.90;;;;;;4980111;28;91245;-33
2022/04/06 04:16:50;;;;;;;34.67;17.13;;;9.10;99.90;;;;;;4980129;28;89501;-37
2022/04/06 04:19:16;;;;;;;33.90;15.68;;;9.10;99.90;;;;;;4980562;28;87549;-33
2022/04/06 04:21:43;;;;;;;29.73;14.50;;;9.20;99.90;;;;;;4979562;28;90564;-32
2022/04/06 04:24:09;;;;;;;20.90;14.45;;;9.20;99.90;;;;;;4979430;28;91856;-33
2022/04/06 04:26:36;;;;;;;25.27;15.43;;;9.20;99.90;;;;;;4979955;28;90431;-35
2022/04/06 04:29:03;;;;;;;32.65;17.35;;;9.30;99.90;;;;;;4980350;28;89218;-36
2022/04/06 04:31:29;;;;;;;23.48;15.57;;;9.20;99.90;;;;;;4980195;28;90177;-33
2022/04/06 04:33:56;;;;;;;21.38;13.68;;;9.20;99.90;;;;;;4979737;28;90207;-33
2022/04/06 04:36:21;;;;;;;29.23;13.88;;;9.20;99.90;;;;;;4979449;28;89929;-35
2022/04/06 04:38:47;;;;;;;28.25;14.45;;;9.30;99.90;;;;;;4980422;28;89380;-32
2022/04/06 04:41:13;;;;;;;27.35;13.55;;;9.20;99.90;;;;;;4979946;28;90639;-35
2022/04/06 04:43:38;;;;;;;21.60;13.43;;;9.20;99.90;;;;;;4979374;28;89476;-34
2022/04/06 04:46:04;;;;;;;18.05;12.70;;;9.20;99.90;;;;;;4980070;28;89681;-33
2022/04/06 04:48:31;;;;;;;21.60;13.02;;;9.20;99.90;;;;;;4978563;28;90676;-31
2022/04/06 04:50:56;;;;;;;21.77;12.55;;;9.20;99.90;;;;;;4979696;28;90305;-34
2022/04/06 04:53:22;;;;;;;22.08;12.15;;;9.20;99.90;;;;;;4979620;28;89702;-32
2022/04/06 04:55:48;;;;;;;17.05;11.55;;;9.20;99.90;;;;;;4978784;28;89745;-36
2022/04/06 04:58:14;;;;;;;25.23;11.18;;;9.20;99.90;;;;;;4979382;28;88211;-34
2022/04/06 05:00:39;;;;;;;25.63;12.18;;;9.30;99.90;;;;;;4978896;28;92112;-33
2022/04/06 05:03:05;;;;;;;20.98;11.57;;;9.30;99.90;;;;;;4979578;28;91098;-32
2022/04/06 05:05:31;;;;;;;22.48;11.20;;;9.30;99.90;;;;;;4979549;28;90334;-35
2022/04/06 05:07:58;;;;;;;22.10;11.77;;;9.20;99.90;;;;;;4979413;28;88083;-33
2022/04/06 05:10:25;;;;;;;12.23;10.90;;;9.20;99.90;;;;;;4979749;28;90151;-33
2022/04/06 05:12:51;;;;;;;17.98;11.27;;;9.20;99.90;;;;;;4978186;28;90606;-35
2022/04/06 05:15:16;;;;;;;22.60;10.82;;;9.30;99.90;;;;;;4979724;28;90609;-34
2022/04/06 05:17:42;;;;;;;15.63;9.82;;;9.20;99.90;;;;;;4979818;28;89769;-33
2022/04/06 05:20:09;;;;;;;15.18;9.95;;;9.20;99.90;;;;;;4979667;28;90211;-31
2022/04/06 05:22:36;;;;;;;23.65;11.27;;;9.20;99.90;;;;;;4979895;28;89773;-36
2022/04/06 05:25:04;;;;;;;19.65;10.70;;;9.10;99.90;;;;;;4979101;28;89384;-32
2022/04/06 05:27:31;;;;;;;26.90;11.68;;;9.10;99.90;;;;;;4979361;28;88407;-33
2022/04/06 05:29:56;;;;;;;19.77;11.38;;;9.10;99.90;;;;;;4978974;28;90474;-33
2022/04/06 05:32:22;;;;;;;19.45;9.98;;;9.10;99.90;;;;;;4979204;28;89756;-34
2022/04/06 05:34:48;;;;;;;25.63;10.40;;;9.10;99.90;;;;;;4978420;28;89175;-35
2022/04/06 05:37:13;;;;;;;26.55;11.82;;;9.10;99.90;;;;;;4978383;28;89302;-33
2022/04/06 05:39:39;;;;;;;24.30;11.40;;;9.10;99.90;;;;;;4978860;28;91344;-36
2022/04/06 05:42:04;;;;;;;21.55;9.80;;;9.10;99.90;;;;;;4979008;28;90247;-32
2022/04/06 05:44:30;;;;;;;18.83;10.15;;;9.10;99.90;;;;;;4979836;28;91852;-32
2022/04/06 05:46:55;;;;;;;17.13;8.50;;;9.10;99.90;;;;;;4977793;28;88932;-33
2022/04/06 05:49:21;;;;;;;17.23;9.70;;;9.10;99.90;;;;;;4979835;28;90293;-35
2022/04/06 05:51:48;;;;;;;17.58;9.38;;;9.20;99.90;;;;;;4978908;28;89694;-33
2022/04/06 05:54:13;;;;;;;22.92;9.02;;;9.10;99.90;;;;;;4979768;28;89568;-36
2022/04/06 05:56:39;;;;;;;16.85;9.50;;;9.20;99.90;;;;;;4978875;28;89657;-32
2022/04/06 05:59:04;;;;;;;14.13;8.35;;;9.20;99.90;;;;;;4978832;28;90134;-35
2022/04/06 06:01:30;;;;;;;16.20;8.55;;;9.20;99.90;;;;;;4980634;28;90782;-32
2022/04/06 06:03:55;;;;;;;12.20;7.80;;;9.20;99.90;;;;;;4982367;28;90600;-32
2022/04/06 06:06:21;;;;;;;21.40;8.38;;;9.20;99.90;;;;;;4965497;28;89051;-32
2022/04/06 06:08:48;;;;;;;14.20;7.78;;;9.20;99.90;;;;;;4981730;28;90162;-35
2022/04/06 06:11:14;;;;;;;12.65;8.25;;;9.20;99.90;;;;;;4982239;28;89826;-35
2022/04/06 06:13:40;;;;;;;13.82;8.65;;;9.20;99.90;;;;;;4982425;28;89672;-32
2022/04/06 06:16:05;;;;;;;11.20;6.93;;;9.10;99.90;;;;;;4982895;28;89388;-31
2022/04/06 06:18:31;;;;;;;16.48;7.32;;;9.20;99.90;;;;;;4982812;28;90083;-35
2022/04/06 06:20:59;;;;;;;11.95;6.47;;;9.10;99.90;;;;;;4982094;28;89926;-36
2022/04/06 06:23:24;;;;;;;14.95;7.10;;;9.20;99.90;;;;;;4981257;28;90479;-31
2022/04/06 06:25:50;;;;;;;11.55;5.90;;;9.20;99.90;;;;;;4982100;28;90357;-33
2022/04/06 06:28:15;;;;;;;14.52;5.70;;;9.20;99.90;;;;;;4982054;28;90270;-32
2022/04/06 06:30:42;;;;;;;15.98;7.00;;;9.30;99.90;;;;;;4982934;28;88386;-37
2022/04/06 06:33:07;;;;;;;14.38;5.93;;;9.30;99.90;;;;;;4982797;28;89735;-33
2022/04/06 06:35:33;;;;;;;11.02;5.47;;;9.30;99.90;;;;;;4982043;28;88456;-33
2022/04/06 06:37:58;;;;;;;7.60;5.28;;;9.30;99.90;;;;;;4981970;28;90202;-36
2022/04/06 06:40:26;;;;;;;7.97;4.38;;;9.30;99.90;;;;;;4981877;28;90574;-35
2022/04/06 06:42:52;;;;;;;7.82;4.63;;;9.30;99.90;;;;;;4982309;28;89459;-33
2022/04/06 06:45:18;;;;;;;8.32;4.65;;;9.30;99.90;;;;;;4982476;28;89881;-33
2022/04/06 06:47:44;;;;;;;13.13;5.10;;;9.30;99.90;;;;;;4980954;28;89949;-32
2022/04/06 06:50:13;;;;;;;17.23;5.00;;;9.30;99.90;;;;;;4982021;28;90107;-33
2022/04/06 06:52:39;;;;;;;9.30;4.80;;;9.20;99.90;;;;;;4982036;28;90654;-33
2022/04/06 06:55:07;;;;;;;12.82;4.90;;;9.30;99.90;;;;;;4982510;28;88166;-32
2022/04/06 06:57:34;;;;;;;6.85;4.20;;;9.20;99.90;;;;;;4981766;28;90134;-34
2022/04/06 06:59:59;;;;;;;9.15;4.70;;;9.20;99.90;;;;;;4981653;28;90681;-35
2022/04/06 07:02:25;;;;;;;9.75;4.93;;;9.10;99.90;;;;;;4981547;28;89900;-33
2022/04/06 07:04:51;;;;;;;12.50;4.30;;;9.10;99.90;;;;;;4981859;28;88972;-32
2022/04/06 07:07:16;;;;;;;16.42;5.20;;;9.20;99.90;;;;;;4981829;28;90163;-35
2022/04/06 07:09:42;;;;;;;12.50;4.55;;;9.10;99.90;;;;;;4980877;28;89803;-36
2022/04/06 07:12:08;;;;;;;10.15;5.50;;;9.20;99.90;;;;;;4981504;28;89071;-34
2022/04/06 07:14:34;;;;;;;8.38;4.65;;;9.20;99.90;;;;;;4981978;28;88943;-33
2022/04/06 07:17:00;;;;;;;10.30;4.65;;;9.20;99.90;;;;;;4981451;28;91867;-34
2022/04/06 07:19:26;;;;;;;17.83;5.05;;;9.20;99.90;;;;;;4982150;28;89955;-33
2022/04/06 07:21:51;;;;;;;9.45;4.93;;;9.30;99.90;;;;;;4980788;28;90259;-33
2022/04/06 07:24:17;;;;;;;8.20;5.18;;;9.30;99.90;;;;;;4981522;28;88468;-34
2022/04/06 07:26:43;;;;;;;9.52;5.00;;;9.30;99.90;;;;;;4981421;28;90115;-34
2022/04/06 07:29:11;;;;;;;8.23;4.05;;;9.40;99.90;;;;;;4981247;28;89799;-34
2022/04/06 07:31:38;;;;;;;11.25;5.55;;;9.30;99.90;;;;;;4981898;28;89440;-32
2022/04/06 07:34:05;;;;;;;7.65;4.35;;;9.30;99.90;;;;;;4981650;28;88628;-32
2022/04/06 07:36:32;;;;;;;8.15;3.72;;;9.20;99.90;;;;;;4980889;28;90497;-35
2022/04/06 07:38:59;;;;;;;10.65;4.13;;;9.20;99.90;;;;;;4980440;28;90312;-33
2022/04/06 07:41:25;;;;;;;9.80;5.03;;;9.20;99.90;;;;;;4982186;28;91012;-36
2022/04/06 07:43:51;;;;;;;16.83;5.43;;;9.20;99.90;;;;;;4980645;28;87938;-35
2022/04/06 07:46:16;;;;;;;10.23;4.82;;;9.20;99.90;;;;;;4980739;28;89500;-35
2022/04/06 07:48:42;;;;;;;6.93;5.55;;;9.20;99.90;;;;;;4980789;28;90166;-34
2022/04/06 07:51:08;;;;;;;10.43;5.30;;;9.20;99.90;;;;;;4981084;28;89771;-35
2022/04/06 07:53:34;;;;;;;12.73;5.68;;;9.20;99.90;;;;;;4982020;28;88498;-37
2022/04/06 07:56:00;;;;;;;13.82;5.30;;;9.10;99.90;;;;;;4981067;28;90100;-32
2022/04/06 07:58:25;;;;;;;7.95;5.43;;;9.20;99.90;;;;;;4980885;28;89627;-36
2022/04/06 08:00:51;;;;;;;13.98;6.05;;;9.30;99.90;;;;;;4980647;28;89465;-32
2022/04/06 08:03:16;;;;;;;9.75;5.63;;;9.40;99.90;;;;;;4979118;28;89836;-37
2022/04/06 08:05:42;;;;;;;14.18;6.18;;;9.40;99.90;;;;;;4978757;28;90323;-31
2022/04/06 08:08:07;;;;;;;9.93;5.25;;;9.30;99.90;;;;;;4978508;28;89743;-34
2022/04/06 08:10:33;;;;;;;10.38;7.50;;;9.30;99.90;;;;;;4978947;28;89591;-33
2022/04/06 08:12:59;;;;;;;13.77;7.63;;;9.20;99.90;;;;;;4978602;28;90089;-35
2022/04/06 08:15:25;;;;;;;14.82;8.20;;;9.40;99.90;;;;;;4978826;28;90362;-34
2022/04/06 08:17:50;;;;;;;19.80;7.85;;;9.40;99.90;;;;;;4978434;28;90509;-35
2022/04/06 08:20:17;;;;;;;10.70;6.82;;;9.40;99.90;;;;;;4978516;28;89811;-35
2022/04/06 08:22:45;;;;;;;15.32;8.52;;;9.50;99.90;;;;;;4978447;28;89838;-35
2022/04/06 08:25:13;;;;;;;14.25;6.90;;;9.50;99.90;;;;;;4977281;28;90101;-34
2022/04/06 08:27:41;;;;;;;14.13;7.13;;;9.50;99.90;;;;;;4976429;28;90940;-36
2022/04/06 08:30:09;;;;;;;15.18;8.93;;;9.50;99.90;;;;;;4976922;28;90423;-34
2022/04/06 08:32:35;;;;;;;12.30;7.28;;;9.50;99.90;;;;;;4977564;28;89099;-35
2022/04/06 08:35:02;;;;;;;11.88;8.10;;;9.50;99.90;;;;;;4978737;28;88919;-34
2022/04/06 08:37:32;;;;;;;16.30;8.77;;;9.60;99.90;;;;;;4977203;28;89902;-35
2022/04/06 08:39:58;;;;;;;19.13;8.63;;;9.60;99.90;;;;;;4977455;28;89493;-34
2022/04/06 08:42:25;;;;;;;15.20;9.85;;;9.70;99.90;;;;;;4977873;28;87719;-34
2022/04/06 08:44:51;;;;;;;17.75;8.95;;;9.60;99.90;;;;;;4977635;28;89419;-36
2022/04/06 08:47:17;;;;;;;17.08;9.15;;;9.60;99.90;;;;;;4960147;28;91256;-35
2022/04/06 08:49:45;;;;;;;13.77;9.57;;;9.70;99.90;;;;;;4977170;28;89744;-36
2022/04/06 08:52:12;;;;;;;11.70;9.05;;;9.70;99.90;;;;;;4977867;28;89063;-34
2022/04/06 08:54:38;;;;;;;15.48;10.13;;;9.70;99.90;;;;;;4976849;28;91061;-35
2022/04/06 08:57:05;;;;;;;19.63;11.30;;;9.70;99.90;;;;;;4976549;28;90614;-34
2022/04/06 08:59:31;;;;;;;14.63;9.90;;;9.70;99.90;;;;;;4977285;28;88582;-33
2022/04/06 09:01:57;;;;;;;15.13;9.52;;;9.60;99.90;;;;;;4977721;28;89283;-34
2022/04/06 09:04:24;;;;;;;16.52;9.35;;;9.60;99.90;;;;;;4976675;28;90364;-32
2022/04/06 09:06:50;;;;;;;20.23;10.50;;;9.50;99.90;;;;;;4977643;28;90288;-34
2022/04/06 09:09:26;;;;;;;12.85;10.93;;;9.60;99.90;;;;;;4976613;28;89390;-33
2022/04/06 09:11:51;;;;;;;15.00;8.85;;;9.70;99.90;;;;;;4976908;28;88336;-32
2022/04/06 09:14:29;;;;;;;16.08;10.77;;;9.60;99.90;;;;;;4977922;28;89709;-35
2022/04/06 09:17:06;;;;;;;18.90;10.18;;;9.60;99.90;;;;;;4975985;28;90712;-34
2022/04/06 09:19:44;;;;;;;16.77;10.05;;;9.60;99.90;;;;;;4976501;28;90724;-34
2022/04/06 09:22:10;;;;;;;19.05;9.52;;;9.50;99.90;;;;;;4976726;28;89529;-35
2022/04/06 09:24:35;;;;;;;11.18;8.68;;;9.60;99.90;;;;;;4976416;28;91285;-32
2022/04/06 09:27:04;;;;;;;13.52;9.68;;;9.60;99.90;;;;;;4976919;28;89727;-35
2022/04/06 09:29:30;;;;;;;12.88;9.20;;;9.50;99.90;;;;;;4976869;28;89913;-33
2022/04/06 09:32:06;;;;;;;15.88;9.65;;;9.50;99.90;;;;;;4977049;28;88581;-34
2022/04/06 09:34:33;;;;;;;15.50;8.35;;;9.50;99.90;;;;;;4976899;28;90165;-33
2022/04/06 09:36:58;;;;;;;14.23;8.15;;;9.70;99.90;;;;;;4976628;28;91170;-33
2022/04/06 09:39:48;;;;;;;12.57;8.63;;;9.80;99.90;;;;;;4977294;28;88850;-34
2022/04/06 09:42:27;;;;;;;13.23;7.88;;;9.90;99.90;;;;;;4976748;28;90487;-37
2022/04/06 09:47:40;;;;;;;9.98;7.38;;;10.10;99.90;;;;;;4976916;28;90053;-31
2022/04/06 09:50:19;;;;;;;9.73;6.72;;;10.10;99.90;;;;;;4959098;28;89605;-32
2022/04/06 09:52:46;;;;;;;13.10;6.57;;;10.10;99.90;;;;;;4976606;28;89617;-34
2022/04/06 09:55:16;;;;;;;13.25;5.55;;;10.00;99.90;;;;;;4975958;28;90463;-31
2022/04/06 09:57:51;;;;;;;10.93;7.28;;;10.00;99.90;;;;;;4976016;28;89752;-35
2022/04/06 10:00:19;;;;;;;13.52;6.65;;;10.00;99.90;;;;;;4977210;28;89282;-34
2022/04/06 10:02:47;;;;;;;7.38;6.30;;;10.10;99.90;;;;;;4977168;28;89797;-32
2022/04/06 10:05:14;;;;;;;9.65;6.25;;;10.00;99.90;;;;;;4976500;28;90346;-33
2022/04/06 10:07:41;;;;;;;9.80;6.15;;;10.10;99.90;;;;;;4975216;28;90422;-32
2022/04/06 10:10:07;;;;;;;10.43;6.50;;;10.10;99.90;;;;;;4976532;28;92882;-36
2022/04/06 10:12:33;;;;;;;11.88;6.72;;;10.10;99.90;;;;;;4976864;28;89321;-34
2022/04/06 10:15:00;;;;;;;14.02;6.45;;;10.10;99.90;;;;;;4975571;28;90148;-34
2022/04/06 10:17:28;;;;;;;15.32;7.00;;;10.10;99.90;;;;;;4958943;28;89636;-37
2022/04/06 10:20:15;;;;;;;13.60;6.10;;;10.20;99.90;;;;;;4976345;28;89471;-34
2022/04/06 10:22:58;;;;;;;8.43;6.50;;;10.20;99.90;;;;;;4976971;28;88732;-33
2022/04/06 10:25:48;;;;;;;6.93;6.22;;;10.20;99.90;;;;;;4976456;28;90424;-36
2022/04/06 10:28:14;;;;;;;11.90;7.03;;;10.20;99.90;;;;;;4976481;28;89103;-35
2022/04/06 10:30:40;;;;;;;8.63;7.07;;;10.20;99.90;;;;;;4976470;28;89594;-37
2022/04/06 10:33:20;;;;;;;11.55;6.82;;;10.30;99.90;;;;;;4975666;28;90662;-34
2022/04/06 10:35:46;;;;;;;9.65;7.22;;;10.30;99.90;;;;;;4976333;28;89136;-32
2022/04/06 10:38:12;;;;;;;10.20;7.85;;;10.40;99.90;;;;;;4976570;28;89946;-34
2022/04/06 10:40:47;;;;;;;12.70;7.45;;;10.30;99.90;;;;;;4976696;28;89499;-35
2022/04/06 10:43:34;;;;;;;17.13;8.85;;;10.40;99.90;;;;;;4977054;28;89196;-32
2022/04/06 10:46:00;;;;;;;10.68;7.28;;;10.30;99.90;;;;;;4975546;28;90481;-32
2022/04/06 10:48:27;;;;;;;17.30;9.27;;;10.30;99.90;;;;;;4979293;28;90262;-35
2022/04/06 10:51:13;;;;;;;16.67;7.65;;;10.30;99.90;;;;;;4980032;28;90669;-35
2022/04/06 10:53:38;;;;;;;11.85;7.10;;;10.30;99.90;;;;;;4978943;28;88306;-32
2022/04/06 10:56:06;;;;;;;11.85;7.63;;;10.40;99.90;;;;;;4979227;28;97254;-35
2022/04/06 10:58:50;;;;;;;;;;;10.40;99.90;;;;;;4980198;28;89726;-33
2022/04/06 11:01:17;;;;;;;10.98;7.93;;;10.30;99.90;;;;;;4980851;28;90346;-32
2022/04/06 11:03:59;;;;;;;12.65;7.65;;;10.20;99.90;;;;;;4979790;28;90496;-34
2022/04/06 11:06:53;;;;;;;13.40;8.77;;;10.20;99.90;;;;;;4979173;28;90591;-34
2022/04/06 11:12:28;;;;;;;12.68;7.88;;;10.20;99.90;;;;;;4979277;28;90656;-33
2022/04/06 11:15:00;;;;;;;10.65;7.85;;;10.10;99.90;;;;;;4979274;28;88653;-35
2022/04/06 11:17:34;;;;;;;11.55;8.88;;;10.20;99.90;;;;;;4980659;28;89339;-34
2022/04/06 11:20:07;;;;;;;13.73;8.80;;;10.20;99.90;;;;;;4978705;28;90713;-34
2022/04/06 11:22:33;;;;;;;13.60;8.40;;;10.10;99.90;;;;;;4979637;28;89865;-35
2022/04/06 11:24:59;;;;;;;14.50;7.80;;;10.10;99.90;;;;;;4978353;28;90014;-33
2022/04/06 11:27:33;;;;;;;10.43;8.65;;;10.10;99.90;;;;;;4979434;28;89255;-33
2022/04/06 11:30:05;;;;;;;18.85;9.43;;;10.10;99.90;;;;;;4979393;28;90147;-33
2022/04/06 11:32:31;;;;;;;16.98;9.52;;;10.10;99.90;;;;;;4979498;28;90201;-34
2022/04/06 11:35:02;;;;;;;12.95;10.00;;;10.10;99.90;;;;;;4978402;28;88374;-35
2022/04/06 11:37:28;;;;;;;11.07;9.65;;;10.10;99.90;;;;;;4978468;28;91947;-35
2022/04/06 11:40:00;;;;;;;11.73;9.70;;;10.10;99.90;;;;;;4978483;28;89639;-34
2022/04/06 11:42:26;;;;;;;14.48;10.02;;;10.10;99.90;;;;;;4979395;28;90077;-32
2022/04/06 11:44:53;;;;;;;12.15;9.15;;;10.10;99.90;;;;;;4978026;28;88731;-34
2022/04/06 11:47:30;;;;;;;16.20;9.20;;;10.00;99.90;;;;;;4979372;28;90357;-36
2022/04/06 11:49:55;;;;;;;15.45;9.82;;;10.00;99.90;;;;;;4978195;28;92081;-33
2022/04/06 11:52:21;;;;;;;13.43;9.85;;;10.10;99.90;;;;;;4978874;28;90233;-34
2022/04/06 11:54:56;;;;;;;13.57;9.52;;;10.20;99.90;;;;;;4978746;28;88891;-35
2022/04/06 11:57:35;;;;;;;12.20;9.60;;;10.20;99.90;;;;;;4978301;28;90805;-33
2022/04/06 12:00:05;;;;;;;11.88;8.93;;;10.30;99.90;;;;;;4978466;28;89288;-33
2022/04/06 12:02:55;;;;;;;11.23;8.65;;;10.30;99.90;;;;;;4978486;28;90063;-34
2022/04/06 12:05:22;;;;;;;16.90;8.40;;;10.30;99.90;;;;;;4978547;28;89589;-31
2022/04/06 12:07:48;;;;;;;14.00;9.32;;;10.30;99.90;;;;;;4978472;28;90623;-36
2022/04/06 12:10:15;;;;;;;11.18;8.77;;;10.30;99.90;;;;;;4978827;28;90101;-34
2022/04/06 12:12:41;;;;;;;14.27;9.02;;;10.30;99.90;;;;;;4977736;28;89831;-34
2022/04/06 12:15:09;;;;;;;12.27;8.77;;;10.50;99.90;;;;;;4977854;28;90062;-37
2022/04/06 12:17:36;;;;;;;11.90;8.10;;;10.50;99.90;;;;;;4978630;28;89694;-37
2022/04/06 12:20:24;;;;;;;13.85;9.05;;;10.50;99.90;;;;;;4977864;28;89588;-33
2022/04/06 12:25:47;;;;;;;12.02;8.73;;;10.60;99.90;;;;;;4975325;28;89432;-34
2022/04/06 12:28:17;;;;;;;11.45;8.32;;;10.70;99.90;;;;;;4977493;28;89954;-35
2022/04/06 12:30:58;;;;;;;13.18;9.35;;;10.90;99.90;;;;;;4977868;28;89978;-34
2022/04/06 12:33:31;;;;;;;14.73;8.77;;;11.00;99.90;;;;;;4977612;28;90971;-35
2022/04/06 12:36:25;;;;;;;14.40;9.73;;;10.90;99.90;;;;;;4977537;28;88857;-33
2022/04/06 12:39:13;;;;;;;12.05;9.27;;;10.80;99.90;;;;;;4977134;28;90124;-36
2022/04/06 12:42:07;;;;;;;13.93;10.50;;;10.80;99.90;;;;;;4976920;28;90826;-34
2022/04/06 12:44:34;;;;;;;15.20;10.15;;;10.90;99.90;;;;;;4977139;28;90563;-37
2022/04/06 12:47:01;;;;;;;13.93;8.93;;;11.00;99.90;;;;;;4977700;28;89148;-36
2022/04/06 12:49:41;;;;;;;14.98;10.73;;;10.90;99.90;;;;;;4977477;28;90589;-36
2022/04/06 12:52:23;;;;;;;13.98;8.25;;;10.80;99.90;;;;;;4959398;28;91075;-35
2022/04/06 12:54:51;;;;;;;16.02;9.63;;;10.70;99.90;;;;;;4976379;28;91386;-35